sensor_id;sensor_type;location;lat;lon;timestamp;temperature;humidity
59025;DHT22;44806;48.008;13.666;2023-08-17T00:02:17;21.20;99.90
59025;DHT22;44806;48.008;13.666;2023-08-17T00:04:44;21.00;99.90
59025;DHT22;44806;48.008;13.666;2023-08-17T00:07:10;21.00;99.90
59025;DHT22;44806;48.008;13.666;2023-08-17T00:09:38;21.10;99.90
59025;DHT22;44806;48.008;13.666;2023-08-17T00:12:06;21.10;99.90
59025;DHT22;44806;48.008;13.666;2023-08-17T00:14:34;21.20;99.90
59025;DHT22;44806;48.008;13.666;2023-08-17T00:17:01;21.20;99.90
59025;DHT22;44806;48.008;13.666;2023-08-17T00:19:28;21.30;99.90
59025;DHT22;44806;48.008;13.666;2023-08-17T00:21:55;21.30;99.90
59025;DHT22;44806;48.008;13.666;2023-08-17T00:24:22;21.20;99.90
59025;DHT22;44806;48.008;13.666;2023-08-17T00:26:49;21.30;99.90
59025;DHT22;44806;48.008;13.666;2023-08-17T00:29:16;21.30;99.90
59025;DHT22;44806;48.008;13.666;2023-08-17T00:31:45;21.30;99.90
59025;DHT22;44806;48.008;13.666;2023-08-17T00:34:12;21.30;99.90
59025;DHT22;44806;48.008;13.666;2023-08-17T00:36:38;21.30;99.90
59025;DHT22;44806;48.008;13.666;2023-08-17T00:39:06;21.20;99.90
59025;DHT22;44806;48.008;13.666;2023-08-17T00:41:33;21.20;99.90
59025;DHT22;44806;48.008;13.666;2023-08-17T00:44:00;21.20;99.90
59025;DHT22;44806;48.008;13.666;2023-08-17T00:46:27;21.10;99.90
59025;DHT22;44806;48.008;13.666;2023-08-17T00:48:56;21.10;99.90
59025;DHT22;44806;48.008;13.666;2023-08-17T00:51:24;21.10;99.90
59025;DHT22;44806;48.008;13.666;2023-08-17T00:53:51;21.10;99.90
59025;DHT22;44806;48.008;13.666;2023-08-17T00:56:19;21.10;99.90
59025;DHT22;44806;48.008;13.666;2023-08-17T00:58:46;21.00;99.90
59025;DHT22;44806;48.008;13.666;2023-08-17T01:01:13;20.80;99.90
59025;DHT22;44806;48.008;13.666;2023-08-17T01:03:40;20.80;99.90
59025;DHT22;44806;48.008;13.666;2023-08-17T01:06:09;20.80;99.90
59025;DHT22;44806;48.008;13.666;2023-08-17T01:08:36;20.80;99.90
59025;DHT22;44806;48.008;13.666;2023-08-17T01:11:09;20.50;99.90
59025;DHT22;44806;48.008;13.666;2023-08-17T01:13:47;20.50;99.90
59025;DHT22;44806;48.008;13.666;2023-08-17T01:16:21;20.60;99.90
59025;DHT22;44806;48.008;13.666;2023-08-17T01:18:52;20.70;99.90
59025;DHT22;44806;48.008;13.666;2023-08-17T01:21:21;20.70;99.90
59025;DHT22;44806;48.008;13.666;2023-08-17T01:23:52;20.60;99.90
59025;DHT22;44806;48.008;13.666;2023-08-17T01:26:19;20.40;99.90
59025;DHT22;44806;48.008;13.666;2023-08-17T01:28:47;20.50;99.90
59025;DHT22;44806;48.008;13.666;2023-08-17T01:31:19;20.50;99.90
59025;DHT22;44806;48.008;13.666;2023-08-17T01:33:50;20.50;99.90
59025;DHT22;44806;48.008;13.666;2023-08-17T01:36:22;20.50;99.90
59025;DHT22;44806;48.008;13.666;2023-08-17T01:38:53;20.50;99.90
59025;DHT22;44806;48.008;13.666;2023-08-17T01:41:24;20.50;99.90
59025;DHT22;44806;48.008;13.666;2023-08-17T01:43:53;20.50;99.90
59025;DHT22;44806;48.008;13.666;2023-08-17T01:46:21;20.50;99.90
59025;DHT22;44806;48.008;13.666;2023-08-17T01:48:48;20.40;99.90
59025;DHT22;44806;48.008;13.666;2023-08-17T01:51:18;20.40;99.90
59025;DHT22;44806;48.008;13.666;2023-08-17T01:53:45;20.40;99.90
59025;DHT22;44806;48.008;13.666;2023-08-17T01:56:13;20.20;99.90
59025;DHT22;44806;48.008;13.666;2023-08-17T01:58:40;20.00;99.90
59025;DHT22;44806;48.008;13.666;2023-08-17T02:01:07;19.80;99.90
59025;DHT22;44806;48.008;13.666;2023-08-17T02:03:34;20.00;99.90
59025;DHT22;44806;48.008;13.666;2023-08-17T02:06:01;20.10;99.90
59025;DHT22;44806;48.008;13.666;2023-08-17T02:08:29;20.10;99.90
59025;DHT22;44806;48.008;13.666;2023-08-17T02:10:56;20.10;99.90
59025;DHT22;44806;48.008;13.666;2023-08-17T02:13:24;20.10;99.90
59025;DHT22;44806;48.008;13.666;2023-08-17T02:15:53;20.10;99.90
59025;DHT22;44806;48.008;13.666;2023-08-17T02:18:19;20.10;99.90
59025;DHT22;44806;48.008;13.666;2023-08-17T02:20:46;20.20;99.90
59025;DHT22;44806;48.008;13.666;2023-08-17T02:23:13;20.10;99.90
59025;DHT22;44806;48.008;13.666;2023-08-17T02:25:40;20.10;99.90
59025;DHT22;44806;48.008;13.666;2023-08-17T02:28:07;19.90;99.90
59025;DHT22;44806;48.008;13.666;2023-08-17T02:30:36;19.90;99.90
59025;DHT22;44806;48.008;13.666;2023-08-17T02:33:03;20.00;99.90
59025;DHT22;44806;48.008;13.666;2023-08-17T02:35:30;20.00;99.90
59025;DHT22;44806;48.008;13.666;2023-08-17T02:37:57;20.00;99.90
59025;DHT22;44806;48.008;13.666;2023-08-17T02:40:24;20.00;99.90
59025;DHT22;44806;48.008;13.666;2023-08-17T02:42:51;20.00;99.90
59025;DHT22;44806;48.008;13.666;2023-08-17T02:45:18;20.00;99.90
59025;DHT22;44806;48.008;13.666;2023-08-17T02:47:46;19.90;99.90
59025;DHT22;44806;48.008;13.666;2023-08-17T02:50:13;20.00;99.90
59025;DHT22;44806;48.008;13.666;2023-08-17T02:52:40;20.00;99.90
59025;DHT22;44806;48.008;13.666;2023-08-17T02:55:07;20.00;99.90
59025;DHT22;44806;48.008;13.666;2023-08-17T02:57:34;20.00;99.90
59025;DHT22;44806;48.008;13.666;2023-08-17T03:00:01;20.00;99.90
59025;DHT22;44806;48.008;13.666;2023-08-17T03:02:28;20.00;99.90
59025;DHT22;44806;48.008;13.666;2023-08-17T03:04:56;20.00;99.90
59025;DHT22;44806;48.008;13.666;2023-08-17T03:07:23;20.00;99.90
59025;DHT22;44806;48.008;13.666;2023-08-17T03:09:50;20.00;99.90
59025;DHT22;44806;48.008;13.666;2023-08-17T03:12:17;19.90;99.90
59025;DHT22;44806;48.008;13.666;2023-08-17T03:14:44;19.90;99.90
59025;DHT22;44806;48.008;13.666;2023-08-17T03:17:11;19.90;99.90
59025;DHT22;44806;48.008;13.666;2023-08-17T03:19:37;19.90;99.90
59025;DHT22;44806;48.008;13.666;2023-08-17T03:22:06;19.80;99.90
59025;DHT22;44806;48.008;13.666;2023-08-17T03:24:33;19.80;99.90
59025;DHT22;44806;48.008;13.666;2023-08-17T03:26:59;19.80;99.90
59025;DHT22;44806;48.008;13.666;2023-08-17T03:29:26;19.80;99.90
59025;DHT22;44806;48.008;13.666;2023-08-17T03:31:53;19.70;99.90
59025;DHT22;44806;48.008;13.666;2023-08-17T03:34:20;19.60;99.90
59025;DHT22;44806;48.008;13.666;2023-08-17T03:36:47;19.60;99.90
59025;DHT22;44806;48.008;13.666;2023-08-17T03:39:15;19.60;99.90
59025;DHT22;44806;48.008;13.666;2023-08-17T03:41:42;19.60;99.90
59025;DHT22;44806;48.008;13.666;2023-08-17T03:44:09;19.60;99.90
59025;DHT22;44806;48.008;13.666;2023-08-17T03:46:36;19.60;99.90
59025;DHT22;44806;48.008;13.666;2023-08-17T03:49:03;19.60;99.90
59025;DHT22;44806;48.008;13.666;2023-08-17T03:51:30;19.60;99.90
59025;DHT22;44806;48.008;13.666;2023-08-17T03:53:57;19.60;99.90
59025;DHT22;44806;48.008;13.666;2023-08-17T03:56:25;19.60;99.90
59025;DHT22;44806;48.008;13.666;2023-08-17T03:58:53;19.60;99.90
59025;DHT22;44806;48.008;13.666;2023-08-17T04:01:20;19.60;99.90
59025;DHT22;44806;48.008;13.666;2023-08-17T04:03:47;19.60;99.90
59025;DHT22;44806;48.008;13.666;2023-08-17T04:06:14;19.60;99.90
59025;DHT22;44806;48.008;13.666;2023-08-17T04:08:41;19.60;99.90
59025;DHT22;44806;48.008;13.666;2023-08-17T04:11:08;19.50;99.90
59025;DHT22;44806;48.008;13.666;2023-08-17T04:13:36;19.50;99.90
59025;DHT22;44806;48.008;13.666;2023-08-17T04:16:03;19.40;99.90
59025;DHT22;44806;48.008;13.666;2023-08-17T04:18:30;19.40;99.90
59025;DHT22;44806;48.008;13.666;2023-08-17T04:20:57;19.10;99.90
59025;DHT22;44806;48.008;13.666;2023-08-17T04:23:24;19.10;99.90
59025;DHT22;44806;48.008;13.666;2023-08-17T04:25:51;19.10;99.90
59025;DHT22;44806;48.008;13.666;2023-08-17T04:28:20;19.10;99.90
59025;DHT22;44806;48.008;13.666;2023-08-17T04:30:48;19.20;99.90
59025;DHT22;44806;48.008;13.666;2023-08-17T04:33:15;19.20;99.90
59025;DHT22;44806;48.008;13.666;2023-08-17T04:35:42;19.30;99.90
59025;DHT22;44806;48.008;13.666;2023-08-17T04:38:12;19.30;99.90
59025;DHT22;44806;48.008;13.666;2023-08-17T04:40:39;19.20;99.90
59025;DHT22;44806;48.008;13.666;2023-08-17T04:43:07;19.30;99.90
59025;DHT22;44806;48.008;13.666;2023-08-17T04:45:33;19.40;99.90
59025;DHT22;44806;48.008;13.666;2023-08-17T04:48:02;19.40;99.90
59025;DHT22;44806;48.008;13.666;2023-08-17T04:50:29;19.20;99.90
59025;DHT22;44806;48.008;13.666;2023-08-17T04:52:56;19.20;99.90
59025;DHT22;44806;48.008;13.666;2023-08-17T04:55:23;19.20;99.90
59025;DHT22;44806;48.008;13.666;2023-08-17T04:57:50;19.20;99.90
59025;DHT22;44806;48.008;13.666;2023-08-17T05:00:17;19.20;99.90
59025;DHT22;44806;48.008;13.666;2023-08-17T05:02:45;19.20;99.90
59025;DHT22;44806;48.008;13.666;2023-08-17T05:05:14;19.30;99.90
59025;DHT22;44806;48.008;13.666;2023-08-17T05:07:40;19.30;99.90
59025;DHT22;44806;48.008;13.666;2023-08-17T05:10:08;19.20;99.90
59025;DHT22;44806;48.008;13.666;2023-08-17T05:12:35;19.30;99.90
59025;DHT22;44806;48.008;13.666;2023-08-17T05:15:02;19.30;99.90
59025;DHT22;44806;48.008;13.666;2023-08-17T05:17:29;19.30;99.90
59025;DHT22;44806;48.008;13.666;2023-08-17T05:19:56;19.10;99.90
59025;DHT22;44806;48.008;13.666;2023-08-17T05:22:24;19.20;99.90
59025;DHT22;44806;48.008;13.666;2023-08-17T05:24:51;19.30;99.90
59025;DHT22;44806;48.008;13.666;2023-08-17T05:27:18;19.20;99.90
59025;DHT22;44806;48.008;13.666;2023-08-17T05:29:45;19.20;99.90
59025;DHT22;44806;48.008;13.666;2023-08-17T05:32:12;19.10;99.90
59025;DHT22;44806;48.008;13.666;2023-08-17T05:34:39;19.10;99.90
59025;DHT22;44806;48.008;13.666;2023-08-17T05:37:06;19.10;99.90
59025;DHT22;44806;48.008;13.666;2023-08-17T05:39:34;19.20;99.90
59025;DHT22;44806;48.008;13.666;2023-08-17T05:42:01;19.20;99.90
59025;DHT22;44806;48.008;13.666;2023-08-17T05:44:28;19.10;99.90
59025;DHT22;44806;48.008;13.666;2023-08-17T05:46:55;19.20;99.90
59025;DHT22;44806;48.008;13.666;2023-08-17T05:49:22;19.30;99.90
59025;DHT22;44806;48.008;13.666;2023-08-17T05:51:49;19.30;99.90
59025;DHT22;44806;48.008;13.666;2023-08-17T05:54:16;19.50;99.90
59025;DHT22;44806;48.008;13.666;2023-08-17T05:56:44;19.50;99.90
59025;DHT22;44806;48.008;13.666;2023-08-17T05:59:12;19.70;99.90
59025;DHT22;44806;48.008;13.666;2023-08-17T06:01:39;19.70;99.90
59025;DHT22;44806;48.008;13.666;2023-08-17T06:04:07;19.90;99.90
59025;DHT22;44806;48.008;13.666;2023-08-17T06:06:33;20.00;99.90
59025;DHT22;44806;48.008;13.666;2023-08-17T06:09:00;20.10;99.90
59025;DHT22;44806;48.008;13.666;2023-08-17T06:11:27;20.20;99.90
59025;DHT22;44806;48.008;13.666;2023-08-17T06:13:56;20.30;99.90
59025;DHT22;44806;48.008;13.666;2023-08-17T06:16:22;20.40;99.90
59025;DHT22;44806;48.008;13.666;2023-08-17T06:18:50;20.60;99.90
59025;DHT22;44806;48.008;13.666;2023-08-17T06:21:16;20.70;99.90
59025;DHT22;44806;48.008;13.666;2023-08-17T06:23:43;20.80;99.90
59025;DHT22;44806;48.008;13.666;2023-08-17T06:26:10;20.90;99.90
59025;DHT22;44806;48.008;13.666;2023-08-17T06:28:37;21.00;99.90
59025;DHT22;44806;48.008;13.666;2023-08-17T06:31:05;21.10;99.90
59025;DHT22;44806;48.008;13.666;2023-08-17T06:33:32;21.10;99.90
59025;DHT22;44806;48.008;13.666;2023-08-17T06:35:59;21.20;99.90
59025;DHT22;44806;48.008;13.666;2023-08-17T06:38:26;21.30;99.90
59025;DHT22;44806;48.008;13.666;2023-08-17T06:40:53;21.40;99.90
59025;DHT22;44806;48.008;13.666;2023-08-17T06:43:20;21.50;99.90
59025;DHT22;44806;48.008;13.666;2023-08-17T06:45:47;21.40;99.90
59025;DHT22;44806;48.008;13.666;2023-08-17T06:48:15;21.30;99.90
59025;DHT22;44806;48.008;13.666;2023-08-17T06:50:42;21.40;99.90
59025;DHT22;44806;48.008;13.666;2023-08-17T06:53:09;21.50;99.90
59025;DHT22;44806;48.008;13.666;2023-08-17T06:55:36;21.40;99.90
59025;DHT22;44806;48.008;13.666;2023-08-17T06:58:03;21.40;99.90
59025;DHT22;44806;48.008;13.666;2023-08-17T07:00:30;21.60;99.90
59025;DHT22;44806;48.008;13.666;2023-08-17T07:02:57;21.70;99.90
59025;DHT22;44806;48.008;13.666;2023-08-17T07:05:26;21.90;99.90
59025;DHT22;44806;48.008;13.666;2023-08-17T07:07:53;22.00;99.90
59025;DHT22;44806;48.008;13.666;2023-08-17T07:10:21;22.10;99.90
59025;DHT22;44806;48.008;13.666;2023-08-17T07:12:48;22.10;99.90
59025;DHT22;44806;48.008;13.666;2023-08-17T07:15:15;22.10;99.90
59025;DHT22;44806;48.008;13.666;2023-08-17T07:17:41;22.40;99.90
59025;DHT22;44806;48.008;13.666;2023-08-17T07:20:09;22.40;99.90
59025;DHT22;44806;48.008;13.666;2023-08-17T07:22:38;22.60;99.90
59025;DHT22;44806;48.008;13.666;2023-08-17T07:25:06;22.60;99.90
59025;DHT22;44806;48.008;13.666;2023-08-17T07:27:35;22.70;99.90
59025;DHT22;44806;48.008;13.666;2023-08-17T07:30:02;22.90;99.90
59025;DHT22;44806;48.008;13.666;2023-08-17T07:32:29;22.90;99.90
59025;DHT22;44806;48.008;13.666;2023-08-17T07:34:55;23.10;99.90
59025;DHT22;44806;48.008;13.666;2023-08-17T07:37:22;23.10;99.90
59025;DHT22;44806;48.008;13.666;2023-08-17T07:39:51;23.20;99.90
59025;DHT22;44806;48.008;13.666;2023-08-17T07:42:18;23.30;99.90
59025;DHT22;44806;48.008;13.666;2023-08-17T07:44:44;23.40;99.90
59025;DHT22;44806;48.008;13.666;2023-08-17T07:47:11;23.50;99.90
59025;DHT22;44806;48.008;13.666;2023-08-17T07:49:38;23.50;99.90
59025;DHT22;44806;48.008;13.666;2023-08-17T07:52:05;23.60;99.90
59025;DHT22;44806;48.008;13.666;2023-08-17T07:54:32;23.70;99.90
59025;DHT22;44806;48.008;13.666;2023-08-17T07:57:00;23.70;99.90
59025;DHT22;44806;48.008;13.666;2023-08-17T07:59:28;23.80;99.90
59025;DHT22;44806;48.008;13.666;2023-08-17T08:01:55;23.80;99.90
59025;DHT22;44806;48.008;13.666;2023-08-17T08:04:22;23.90;99.90
59025;DHT22;44806;48.008;13.666;2023-08-17T08:06:49;23.90;99.90
59025;DHT22;44806;48.008;13.666;2023-08-17T08:09:16;24.10;99.90
59025;DHT22;44806;48.008;13.666;2023-08-17T08:11:43;24.10;99.80
59025;DHT22;44806;48.008;13.666;2023-08-17T08:14:11;24.20;99.90
59025;DHT22;44806;48.008;13.666;2023-08-17T08:16:38;24.20;99.90
59025;DHT22;44806;48.008;13.666;2023-08-17T08:19:05;24.30;99.90
59025;DHT22;44806;48.008;13.666;2023-08-17T08:21:32;24.40;99.90
59025;DHT22;44806;48.008;13.666;2023-08-17T08:23:59;24.50;99.30
59025;DHT22;44806;48.008;13.666;2023-08-17T08:26:25;24.60;98.50
59025;DHT22;44806;48.008;13.666;2023-08-17T08:28:52;24.40;98.20
59025;DHT22;44806;48.008;13.666;2023-08-17T08:31:21;24.40;98.30
59025;DHT22;44806;48.008;13.666;2023-08-17T08:33:48;24.50;98.60
59025;DHT22;44806;48.008;13.666;2023-08-17T08:36:15;24.50;98.20
59025;DHT22;44806;48.008;13.666;2023-08-17T08:38:42;24.60;97.80
59025;DHT22;44806;48.008;13.666;2023-08-17T08:41:11;24.70;97.30
59025;DHT22;44806;48.008;13.666;2023-08-17T08:43:38;24.90;97.00
59025;DHT22;44806;48.008;13.666;2023-08-17T08:46:05;24.80;96.80
59025;DHT22;44806;48.008;13.666;2023-08-17T08:48:34;24.90;95.90
59025;DHT22;44806;48.008;13.666;2023-08-17T08:51:03;24.90;95.60
59025;DHT22;44806;48.008;13.666;2023-08-17T08:53:37;24.90;96.90
59025;DHT22;44806;48.008;13.666;2023-08-17T08:56:04;25.10;95.90
59025;DHT22;44806;48.008;13.666;2023-08-17T08:58:34;25.20;95.60
59025;DHT22;44806;48.008;13.666;2023-08-17T09:01:02;25.30;96.20
59025;DHT22;44806;48.008;13.666;2023-08-17T09:03:31;25.20;94.90
59025;DHT22;44806;48.008;13.666;2023-08-17T09:06:00;25.20;95.00
59025;DHT22;44806;48.008;13.666;2023-08-17T09:08:30;25.40;95.50
59025;DHT22;44806;48.008;13.666;2023-08-17T09:10:57;25.50;94.40
59025;DHT22;44806;48.008;13.666;2023-08-17T09:13:24;25.60;94.20
59025;DHT22;44806;48.008;13.666;2023-08-17T09:15:51;25.70;95.00
59025;DHT22;44806;48.008;13.666;2023-08-17T09:18:19;25.60;94.20
59025;DHT22;44806;48.008;13.666;2023-08-17T09:20:47;25.80;94.30
59025;DHT22;44806;48.008;13.666;2023-08-17T09:23:16;25.90;93.60
59025;DHT22;44806;48.008;13.666;2023-08-17T09:25:46;25.90;94.30
59025;DHT22;44806;48.008;13.666;2023-08-17T09:28:14;26.20;93.20
59025;DHT22;44806;48.008;13.666;2023-08-17T09:30:52;26.20;94.50
59025;DHT22;44806;48.008;13.666;2023-08-17T09:33:20;26.30;94.00
59025;DHT22;44806;48.008;13.666;2023-08-17T09:35:48;26.50;93.70
59025;DHT22;44806;48.008;13.666;2023-08-17T09:38:16;26.70;92.30
59025;DHT22;44806;48.008;13.666;2023-08-17T09:40:43;26.80;92.50
59025;DHT22;44806;48.008;13.666;2023-08-17T09:43:10;27.00;91.20
59025;DHT22;44806;48.008;13.666;2023-08-17T09:45:39;26.90;91.70
59025;DHT22;44806;48.008;13.666;2023-08-17T09:48:07;27.00;91.30
59025;DHT22;44806;48.008;13.666;2023-08-17T09:50:34;27.10;91.50
59025;DHT22;44806;48.008;13.666;2023-08-17T09:53:02;27.30;90.70
59025;DHT22;44806;48.008;13.666;2023-08-17T09:55:31;27.30;91.20
59025;DHT22;44806;48.008;13.666;2023-08-17T09:58:00;27.40;90.30
59025;DHT22;44806;48.008;13.666;2023-08-17T10:00:27;27.40;90.10
59025;DHT22;44806;48.008;13.666;2023-08-17T10:02:55;27.50;89.80
59025;DHT22;44806;48.008;13.666;2023-08-17T10:05:25;27.40;89.10
59025;DHT22;44806;48.008;13.666;2023-08-17T10:07:57;27.60;89.00
59025;DHT22;44806;48.008;13.666;2023-08-17T10:10:26;27.80;90.00
59025;DHT22;44806;48.008;13.666;2023-08-17T10:12:59;27.90;89.50
59025;DHT22;44806;48.008;13.666;2023-08-17T10:15:29;28.00;88.20
59025;DHT22;44806;48.008;13.666;2023-08-17T10:18:02;27.90;88.90
59025;DHT22;44806;48.008;13.666;2023-08-17T10:20:34;28.00;89.10
59025;DHT22;44806;48.008;13.666;2023-08-17T10:23:10;28.00;88.00
59025;DHT22;44806;48.008;13.666;2023-08-17T10:25:39;27.90;88.50
59025;DHT22;44806;48.008;13.666;2023-08-17T10:28:09;27.90;89.60
59025;DHT22;44806;48.008;13.666;2023-08-17T10:30:37;28.00;88.00
59025;DHT22;44806;48.008;13.666;2023-08-17T10:33:05;28.20;88.20
59025;DHT22;44806;48.008;13.666;2023-08-17T10:35:33;28.30;89.10
59025;DHT22;44806;48.008;13.666;2023-08-17T10:38:00;28.50;90.20
59025;DHT22;44806;48.008;13.666;2023-08-17T10:40:34;28.70;85.90
59025;DHT22;44806;48.008;13.666;2023-08-17T10:43:03;28.80;86.60
59025;DHT22;44806;48.008;13.666;2023-08-17T10:45:33;28.90;84.30
59025;DHT22;44806;48.008;13.666;2023-08-17T10:48:26;28.80;85.70
59025;DHT22;44806;48.008;13.666;2023-08-17T10:51:04;28.90;84.70
59025;DHT22;44806;48.008;13.666;2023-08-17T10:53:35;28.90;84.90
59025;DHT22;44806;48.008;13.666;2023-08-17T10:56:07;28.80;86.80
59025;DHT22;44806;48.008;13.666;2023-08-17T10:58:34;28.70;86.20
59025;DHT22;44806;48.008;13.666;2023-08-17T11:01:02;28.90;84.90
59025;DHT22;44806;48.008;13.666;2023-08-17T11:03:29;28.80;82.90
59025;DHT22;44806;48.008;13.666;2023-08-17T11:05:56;29.00;82.50
59025;DHT22;44806;48.008;13.666;2023-08-17T11:08:28;29.10;82.90
59025;DHT22;44806;48.008;13.666;2023-08-17T11:11:01;29.10;81.90
59025;DHT22;44806;48.008;13.666;2023-08-17T11:13:29;29.30;84.30
59025;DHT22;44806;48.008;13.666;2023-08-17T11:15:58;29.10;82.20
59025;DHT22;44806;48.008;13.666;2023-08-17T11:18:26;29.50;85.20
59025;DHT22;44806;48.008;13.666;2023-08-17T11:20:54;29.60;83.60
59025;DHT22;44806;48.008;13.666;2023-08-17T11:23:22;29.80;81.40
59025;DHT22;44806;48.008;13.666;2023-08-17T11:25:52;29.60;80.90
59025;DHT22;44806;48.008;13.666;2023-08-17T11:28:19;29.70;78.50
59025;DHT22;44806;48.008;13.666;2023-08-17T11:30:56;29.90;79.00
59025;DHT22;44806;48.008;13.666;2023-08-17T11:33:23;30.00;79.30
59025;DHT22;44806;48.008;13.666;2023-08-17T11:35:53;30.00;76.20
59025;DHT22;44806;48.008;13.666;2023-08-17T11:38:20;30.20;80.20
59025;DHT22;44806;48.008;13.666;2023-08-17T11:40:47;30.30;78.90
59025;DHT22;44806;48.008;13.666;2023-08-17T11:43:14;30.00;76.40
59025;DHT22;44806;48.008;13.666;2023-08-17T11:45:42;30.20;78.90
59025;DHT22;44806;48.008;13.666;2023-08-17T11:48:09;30.20;75.40
59025;DHT22;44806;48.008;13.666;2023-08-17T11:50:36;30.20;76.30
59025;DHT22;44806;48.008;13.666;2023-08-17T11:53:06;30.40;74.50
59025;DHT22;44806;48.008;13.666;2023-08-17T11:55:33;30.50;74.20
59025;DHT22;44806;48.008;13.666;2023-08-17T11:58:01;30.60;71.90
59025;DHT22;44806;48.008;13.666;2023-08-17T12:00:34;30.50;72.50
59025;DHT22;44806;48.008;13.666;2023-08-17T12:03:01;30.50;72.90
59025;DHT22;44806;48.008;13.666;2023-08-17T12:05:31;30.40;71.40
59025;DHT22;44806;48.008;13.666;2023-08-17T12:07:59;30.50;71.60
59025;DHT22;44806;48.008;13.666;2023-08-17T12:10:29;30.60;75.30
59025;DHT22;44806;48.008;13.666;2023-08-17T12:12:58;30.90;74.10
59025;DHT22;44806;48.008;13.666;2023-08-17T12:15:30;30.90;73.00
59025;DHT22;44806;48.008;13.666;2023-08-17T12:17:59;30.60;72.70
59025;DHT22;44806;48.008;13.666;2023-08-17T12:20:27;30.60;66.70
59025;DHT22;44806;48.008;13.666;2023-08-17T12:29:47;31.10;73.50
59025;DHT22;44806;48.008;13.666;2023-08-17T12:32:15;31.30;72.20
59025;DHT22;44806;48.008;13.666;2023-08-17T12:34:42;31.20;70.40
59025;DHT22;44806;48.008;13.666;2023-08-17T12:37:09;31.00;72.00
59025;DHT22;44806;48.008;13.666;2023-08-17T12:39:36;30.90;71.10
59025;DHT22;44806;48.008;13.666;2023-08-17T12:42:04;31.10;69.60
59025;DHT22;44806;48.008;13.666;2023-08-17T12:44:31;31.10;69.90
59025;DHT22;44806;48.008;13.666;2023-08-17T12:47:00;31.30;68.40
59025;DHT22;44806;48.008;13.666;2023-08-17T12:49:26;31.40;69.80
59025;DHT22;44806;48.008;13.666;2023-08-17T12:51:53;31.50;68.60
59025;DHT22;44806;48.008;13.666;2023-08-17T12:54:20;31.70;71.60
59025;DHT22;44806;48.008;13.666;2023-08-17T12:56:47;31.80;69.70
59025;DHT22;44806;48.008;13.666;2023-08-17T12:59:14;31.90;68.40
59025;DHT22;44806;48.008;13.666;2023-08-17T13:01:41;31.90;67.20
59025;DHT22;44806;48.008;13.666;2023-08-17T13:04:10;32.00;68.00
59025;DHT22;44806;48.008;13.666;2023-08-17T13:06:37;32.00;67.90
59025;DHT22;44806;48.008;13.666;2023-08-17T13:09:05;31.90;64.70
59025;DHT22;44806;48.008;13.666;2023-08-17T13:11:32;31.70;65.90
59025;DHT22;44806;48.008;13.666;2023-08-17T13:13:59;31.60;63.60
59025;DHT22;44806;48.008;13.666;2023-08-17T13:16:26;31.70;66.90
59025;DHT22;44806;48.008;13.666;2023-08-17T13:18:52;31.80;67.50
59025;DHT22;44806;48.008;13.666;2023-08-17T13:21:21;32.00;66.20
59025;DHT22;44806;48.008;13.666;2023-08-17T13:23:48;32.20;63.70
59025;DHT22;44806;48.008;13.666;2023-08-17T13:26:15;32.30;62.50
59025;DHT22;44806;48.008;13.666;2023-08-17T13:28:42;32.30;65.70
59025;DHT22;44806;48.008;13.666;2023-08-17T13:31:09;32.30;65.10
59025;DHT22;44806;48.008;13.666;2023-08-17T13:33:36;32.50;65.00
59025;DHT22;44806;48.008;13.666;2023-08-17T13:36:03;32.50;63.30
59025;DHT22;44806;48.008;13.666;2023-08-17T13:38:31;32.60;63.60
59025;DHT22;44806;48.008;13.666;2023-08-17T13:40:58;32.70;62.30
59025;DHT22;44806;48.008;13.666;2023-08-17T13:43:25;32.70;64.20
59025;DHT22;44806;48.008;13.666;2023-08-17T13:45:52;33.00;63.50
59025;DHT22;44806;48.008;13.666;2023-08-17T13:48:19;32.80;62.50
59025;DHT22;44806;48.008;13.666;2023-08-17T13:50:46;32.90;61.70
59025;DHT22;44806;48.008;13.666;2023-08-17T13:53:12;33.10;62.90
59025;DHT22;44806;48.008;13.666;2023-08-17T13:55:41;33.20;63.70
59025;DHT22;44806;48.008;13.666;2023-08-17T13:58:08;33.10;60.10
59025;DHT22;44806;48.008;13.666;2023-08-17T14:00:36;33.20;61.20
59025;DHT22;44806;48.008;13.666;2023-08-17T14:03:03;33.40;62.70
59025;DHT22;44806;48.008;13.666;2023-08-17T14:05:31;33.60;61.60
59025;DHT22;44806;48.008;13.666;2023-08-17T14:07:59;33.40;60.80
59025;DHT22;44806;48.008;13.666;2023-08-17T14:10:26;33.20;59.60
59025;DHT22;44806;48.008;13.666;2023-08-17T14:12:54;33.30;59.40
59025;DHT22;44806;48.008;13.666;2023-08-17T14:15:21;33.00;57.00
59025;DHT22;44806;48.008;13.666;2023-08-17T14:17:48;33.10;59.80
59025;DHT22;44806;48.008;13.666;2023-08-17T14:20:15;33.20;60.50
59025;DHT22;44806;48.008;13.666;2023-08-17T14:22:42;33.20;61.50
59025;DHT22;44806;48.008;13.666;2023-08-17T14:25:08;33.40;58.90
59025;DHT22;44806;48.008;13.666;2023-08-17T14:27:35;33.50;62.00
59025;DHT22;44806;48.008;13.666;2023-08-17T14:30:05;33.70;59.10
59025;DHT22;44806;48.008;13.666;2023-08-17T14:32:32;33.60;58.30
59025;DHT22;44806;48.008;13.666;2023-08-17T14:34:59;33.40;59.10
59025;DHT22;44806;48.008;13.666;2023-08-17T14:37:26;33.60;60.90
59025;DHT22;44806;48.008;13.666;2023-08-17T14:39:53;33.60;58.70
59025;DHT22;44806;48.008;13.666;2023-08-17T14:42:19;33.80;60.30
59025;DHT22;44806;48.008;13.666;2023-08-17T14:44:46;34.00;61.30
59025;DHT22;44806;48.008;13.666;2023-08-17T14:47:15;34.30;60.20
59025;DHT22;44806;48.008;13.666;2023-08-17T14:49:41;34.00;60.60
59025;DHT22;44806;48.008;13.666;2023-08-17T14:52:08;34.30;58.90
59025;DHT22;44806;48.008;13.666;2023-08-17T14:54:35;34.20;57.80
59025;DHT22;44806;48.008;13.666;2023-08-17T14:57:03;34.40;60.50
59025;DHT22;44806;48.008;13.666;2023-08-17T14:59:29;34.60;59.20
59025;DHT22;44806;48.008;13.666;2023-08-17T15:01:56;34.80;58.00
59025;DHT22;44806;48.008;13.666;2023-08-17T15:04:25;34.90;59.90
59025;DHT22;44806;48.008;13.666;2023-08-17T15:06:51;34.90;57.90
59025;DHT22;44806;48.008;13.666;2023-08-17T15:09:18;35.10;57.60
59025;DHT22;44806;48.008;13.666;2023-08-17T15:11:45;35.20;57.40
59025;DHT22;44806;48.008;13.666;2023-08-17T15:14:13;35.30;56.70
59025;DHT22;44806;48.008;13.666;2023-08-17T15:16:40;35.20;55.70
59025;DHT22;44806;48.008;13.666;2023-08-17T15:19:07;35.20;56.50
59025;DHT22;44806;48.008;13.666;2023-08-17T15:21:35;35.50;56.60
59025;DHT22;44806;48.008;13.666;2023-08-17T15:24:02;35.10;54.90
59025;DHT22;44806;48.008;13.666;2023-08-17T15:26:29;35.00;57.40